createdAt,value
2019-03-20T00:01:43.193Z,12.93
2019-03-20T00:04:07.329Z,12.93
2019-03-20T00:06:42.167Z,12.87
2019-03-20T00:09:14.622Z,12.63
2019-03-20T00:11:47.554Z,13.70
2019-03-20T00:14:19.526Z,12.10
2019-03-20T00:16:53.583Z,18.93
2019-03-20T00:19:26.266Z,13.57
2019-03-20T00:21:58.294Z,12.00
2019-03-20T00:24:31.147Z,13.70
2019-03-20T00:27:07.473Z,13.27
2019-03-20T00:29:43.094Z,13.20
2019-03-20T00:32:21.655Z,13.03
2019-03-20T00:35:00.891Z,13.60
2019-03-20T00:37:31.402Z,13.53
2019-03-20T00:40:07.542Z,13.47
2019-03-20T00:42:40.756Z,13.10
2019-03-20T00:45:14.891Z,13.97
2019-03-20T00:47:48.419Z,14.57
2019-03-20T00:50:23.297Z,14.10
2019-03-20T00:52:58.622Z,13.87
2019-03-20T00:55:31.661Z,12.87
2019-03-20T00:58:10.029Z,13.10
2019-03-20T01:00:44.257Z,13.43
2019-03-20T01:03:17.417Z,13.60
2019-03-20T01:05:49.787Z,14.27
2019-03-20T01:08:22.204Z,14.17
2019-03-20T01:10:54.286Z,13.67
2019-03-20T01:13:26.312Z,13.07
2019-03-20T01:15:58.465Z,14.47
2019-03-20T01:18:31.129Z,14.77
2019-03-20T01:21:03.001Z,15.53
2019-03-20T01:23:35.204Z,14.90
2019-03-20T01:26:07.257Z,14.77
2019-03-20T01:28:39.074Z,15.30
2019-03-20T01:31:12.355Z,15.13
2019-03-20T01:33:44.586Z,15.47
2019-03-20T01:36:16.627Z,15.03
2019-03-20T01:38:48.794Z,14.03
2019-03-20T01:41:21.246Z,14.90
2019-03-20T01:43:54.176Z,14.27
2019-03-20T01:46:26.320Z,13.70
2019-03-20T01:48:58.226Z,14.77
2019-03-20T01:51:31.721Z,14.13
2019-03-20T01:54:04.206Z,14.10
2019-03-20T01:56:37.742Z,13.07
2019-03-20T01:59:09.651Z,14.07
2019-03-20T02:01:43.567Z,13.30
2019-03-20T02:04:15.574Z,14.53
2019-03-20T02:06:47.418Z,13.97
2019-03-20T02:09:19.363Z,14.03
2019-03-20T02:11:51.494Z,15.40
2019-03-20T02:14:23.451Z,15.13
2019-03-20T02:16:55.703Z,12.70
2019-03-20T02:19:27.654Z,13.70
2019-03-20T02:22:07.236Z,14.80
2019-03-20T02:24:39.562Z,12.97
2019-03-20T02:27:12.416Z,14.07
2019-03-20T02:29:44.317Z,12.70
2019-03-20T02:32:16.701Z,13.67
2019-03-20T02:34:48.982Z,14.03
2019-03-20T02:37:20.503Z,14.07
2019-03-20T02:39:52.426Z,13.93
2019-03-20T02:42:24.285Z,14.80
2019-03-20T02:44:56.622Z,14.83
2019-03-20T02:47:28.412Z,15.27
2019-03-20T02:50:00.547Z,14.17
2019-03-20T02:52:32.381Z,15.60
2019-03-20T02:55:05.614Z,15.13
2019-03-20T02:57:40.415Z,15.33
2019-03-20T03:00:15.854Z,14.83
2019-03-20T03:02:47.549Z,15.57
2019-03-20T03:05:19.803Z,14.87
2019-03-20T03:07:51.630Z,15.90
2019-03-20T03:10:26.217Z,15.43
2019-03-20T03:12:58.300Z,14.93
2019-03-20T03:15:30.131Z,15.90
2019-03-20T03:18:03.340Z,14.77
2019-03-20T03:20:35.599Z,15.73
2019-03-20T03:23:09.041Z,14.90
2019-03-20T03:25:40.698Z,14.40
2019-03-20T03:28:13.764Z,14.20
2019-03-20T03:30:47.585Z,15.60
2019-03-20T03:33:20.178Z,15.13
2019-03-20T03:35:52.524Z,15.70
2019-03-20T03:38:24.311Z,15.13
2019-03-20T03:40:56.464Z,14.63
2019-03-20T03:43:28.719Z,15.10
2019-03-20T03:46:00.657Z,16.77
2019-03-20T03:48:32.978Z,17.20
2019-03-20T03:51:05.251Z,16.63
2019-03-20T03:53:37.165Z,16.33
2019-03-20T03:56:09.351Z,16.80
2019-03-20T03:58:41.823Z,18.30
2019-03-20T04:01:15.970Z,17.27
2019-03-20T04:03:47.876Z,17.57
2019-03-20T04:06:20.084Z,17.80
2019-03-20T04:08:52.416Z,16.33
2019-03-20T04:11:24.375Z,17.70
2019-03-20T04:13:56.423Z,17.13
2019-03-20T04:16:28.280Z,17.17
2019-03-20T04:19:00.382Z,17.73
2019-03-20T04:21:32.225Z,17.07
2019-03-20T04:24:04.101Z,18.13
2019-03-20T04:26:35.959Z,17.00
2019-03-20T04:29:07.903Z,16.90
2019-03-20T04:31:40.328Z,15.60
2019-03-20T04:34:12.342Z,16.27
2019-03-20T04:36:47.919Z,17.10
2019-03-20T04:39:17.898Z,16.30
2019-03-20T04:41:50.852Z,16.90
2019-03-20T04:44:27.529Z,15.43
2019-03-20T04:46:59.701Z,16.00
2019-03-20T04:49:35.820Z,16.03
2019-03-20T04:52:08.678Z,14.47
2019-03-20T04:54:44.052Z,13.77
2019-03-20T04:57:16.225Z,14.03
2019-03-20T04:59:49.819Z,14.60
2019-03-20T05:02:21.960Z,14.03
2019-03-20T05:04:55.555Z,13.30
2019-03-20T05:07:27.463Z,13.97
2019-03-20T05:09:59.695Z,13.57
2019-03-20T05:12:31.849Z,12.40
2019-03-20T05:15:04.687Z,13.47
2019-03-20T05:17:36.429Z,11.67
2019-03-20T05:20:10.985Z,12.50
2019-03-20T05:22:45.977Z,12.43
2019-03-20T05:25:19.042Z,11.90
2019-03-20T05:27:50.901Z,11.53
2019-03-20T05:30:24.072Z,11.60
2019-03-20T05:32:56.260Z,11.20
2019-03-20T05:35:28.488Z,11.70
2019-03-20T05:38:02.082Z,10.63
2019-03-20T05:40:35.140Z,10.63
2019-03-20T05:43:07.485Z,10.07
2019-03-20T05:45:40.078Z,10.23
2019-03-20T05:48:12.546Z,10.43
2019-03-20T05:50:44.926Z,10.23
2019-03-20T05:53:18.353Z,11.10
2019-03-20T05:55:50.539Z,9.90
2019-03-20T05:58:22.738Z,9.20
2019-03-20T06:00:55.026Z,9.27
2019-03-20T06:03:26.997Z,8.73
2019-03-20T06:05:59.349Z,9.90
2019-03-20T06:08:32.643Z,8.90
2019-03-20T06:11:05.525Z,8.57
2019-03-20T06:13:37.449Z,8.40
2019-03-20T06:16:10.493Z,8.53
2019-03-20T06:18:46.418Z,8.37
2019-03-20T06:21:18.706Z,8.60
2019-03-20T06:23:50.995Z,8.40
2019-03-20T06:26:24.801Z,7.50
2019-03-20T06:28:56.698Z,9.50
2019-03-20T06:31:28.717Z,7.97
2019-03-20T06:34:00.933Z,7.73
2019-03-20T06:36:33.062Z,7.73
2019-03-20T06:39:06.640Z,8.73
2019-03-20T06:41:38.700Z,7.53
2019-03-20T06:44:10.168Z,8.17
2019-03-20T06:46:44.228Z,7.20
2019-03-20T06:49:16.446Z,7.90
2019-03-20T06:51:47.865Z,7.10
2019-03-20T06:54:19.814Z,7.53
2019-03-20T06:56:52.374Z,7.97
2019-03-20T07:00:11.115Z,7.50
2019-03-20T07:02:48.257Z,7.70
2019-03-20T07:06:07.987Z,7.37
2019-03-20T07:08:46.559Z,7.50
2019-03-20T07:11:19.260Z,7.63
2019-03-20T07:13:51.722Z,6.77
2019-03-20T07:16:26.053Z,7.53
2019-03-20T07:18:58.574Z,7.43
2019-03-20T07:21:30.851Z,7.73
2019-03-20T07:24:02.784Z,7.43
2019-03-20T07:26:35.757Z,8.43
2019-03-20T07:29:08.017Z,7.07
2019-03-20T07:31:40.935Z,7.50
2019-03-20T07:34:12.393Z,7.87
2019-03-20T07:36:46.430Z,7.53
2019-03-20T07:39:18.404Z,7.87
2019-03-20T07:41:54.522Z,8.20
2019-03-20T07:44:26.733Z,7.03
2019-03-20T07:47:00.211Z,7.03
2019-03-20T07:49:35.630Z,7.33
2019-03-20T07:52:07.495Z,7.37
2019-03-20T07:54:39.648Z,6.93
2019-03-20T07:57:15.083Z,7.30
2019-03-20T14:48:44.384Z,4.83
2019-03-20T14:51:17.460Z,5.10
2019-03-20T14:53:49.849Z,5.13
2019-03-20T14:56:23.312Z,5.00
2019-03-20T14:58:56.135Z,5.63
2019-03-20T15:01:27.504Z,5.23
2019-03-20T15:04:02.696Z,4.97
2019-03-20T15:06:35.174Z,5.17
2019-03-20T15:09:32.144Z,5.43
2019-03-20T15:12:14.425Z,6.03
2019-03-20T15:14:46.742Z,6.20
2019-03-20T15:17:18.431Z,6.20
2019-03-20T15:19:51.959Z,5.47
2019-03-20T15:22:23.661Z,5.60
2019-03-20T15:24:55.292Z,6.03
2019-03-20T15:27:33.001Z,6.07
2019-03-20T15:30:06.602Z,5.70
2019-03-20T15:32:41.346Z,5.80
2019-03-20T15:35:14.279Z,5.37
2019-03-20T15:37:47.942Z,6.03
2019-03-20T15:40:19.447Z,5.20
2019-03-20T15:42:51.710Z,5.40
2019-03-20T15:45:33.879Z,5.47
2019-03-20T15:48:16.949Z,5.63
2019-03-20T15:50:52.208Z,5.47
2019-03-20T15:53:25.860Z,5.37
2019-03-20T15:56:00.024Z,5.77
2019-03-20T15:58:32.745Z,5.63
2019-03-20T16:01:09.184Z,5.50
2019-03-20T16:03:43.120Z,5.27
2019-03-20T16:06:18.040Z,5.57
2019-03-20T16:08:50.393Z,5.50
2019-03-20T16:11:23.455Z,5.17
2019-03-20T16:13:56.280Z,5.77
2019-03-20T16:16:28.005Z,6.13
2019-03-20T16:19:01.985Z,6.20
2019-03-20T16:21:34.458Z,5.80
2019-03-20T16:24:07.018Z,5.77
2019-03-20T16:26:39.344Z,5.97
2019-03-20T16:29:12.854Z,5.83
2019-03-20T16:31:46.374Z,5.93
2019-03-20T16:34:22.159Z,6.10
2019-03-20T16:36:55.595Z,5.73
2019-03-20T16:39:27.419Z,6.63
2019-03-20T16:41:59.714Z,5.97
2019-03-20T16:44:35.210Z,5.83
2019-03-20T16:47:08.662Z,5.83
2019-03-20T16:49:46.764Z,6.03
2019-03-20T16:52:20.643Z,5.57
2019-03-20T16:54:52.921Z,5.80
2019-03-20T16:57:28.348Z,5.50
2019-03-20T17:00:02.267Z,5.43
2019-03-20T17:02:37.549Z,5.80
2019-03-20T17:05:15.609Z,6.13
2019-03-20T17:07:47.921Z,5.93
2019-03-20T17:10:40.606Z,5.77
2019-03-20T17:13:15.591Z,5.40
2019-03-20T17:15:49.590Z,6.50
2019-03-20T17:18:23.804Z,6.23
2019-03-20T17:20:58.039Z,5.83
2019-03-20T17:23:31.664Z,5.87
2019-03-20T17:26:05.460Z,5.83
2019-03-20T17:28:39.060Z,5.90
2019-03-20T17:31:12.903Z,5.93
2019-03-20T17:33:45.138Z,6.07
2019-03-20T17:36:17.382Z,5.70
2019-03-20T17:38:50.760Z,6.07
2019-03-20T17:41:36.182Z,5.43
2019-03-20T17:44:01.910Z,5.83
2019-03-20T17:46:34.322Z,6.33
2019-03-20T17:49:08.186Z,7.33
2019-03-20T17:51:47.366Z,7.30
2019-03-20T17:54:20.371Z,8.30
2019-03-20T17:56:55.262Z,8.03
2019-03-20T17:59:27.748Z,7.90
2019-03-20T18:02:00.659Z,7.27
2019-03-20T18:04:32.787Z,7.53
2019-03-20T18:07:04.633Z,7.60
2019-03-20T18:09:38.383Z,7.87
2019-03-20T18:12:11.432Z,7.57
2019-03-20T18:14:44.723Z,7.27
2019-03-20T18:17:16.873Z,7.23
2019-03-20T18:19:51.039Z,8.10
2019-03-20T18:22:24.655Z,8.30
2019-03-20T18:24:58.112Z,8.27
2019-03-20T18:27:31.073Z,8.37
2019-03-20T18:30:03.841Z,8.17
2019-03-20T18:32:36.996Z,8.20
2019-03-20T18:35:14.309Z,8.17
2019-03-20T18:37:49.337Z,6.90
2019-03-20T18:40:26.216Z,8.27
2019-03-20T18:42:57.715Z,7.37
2019-03-20T18:45:30.028Z,7.50
2019-03-20T18:48:18.468Z,7.10
2019-03-20T18:50:54.275Z,7.23
2019-03-20T18:53:26.105Z,8.00
2019-03-20T18:55:59.212Z,7.20
2019-03-20T18:58:32.958Z,7.53
2019-03-20T19:01:04.979Z,8.63
2019-03-20T19:03:38.219Z,11.67
2019-03-20T19:06:14.469Z,11.97
2019-03-20T19:08:48.440Z,11.03
2019-03-20T19:11:20.842Z,10.33
2019-03-20T19:13:55.112Z,9.67
2019-03-20T19:16:27.986Z,8.47
2019-03-20T19:19:04.223Z,6.60
2019-03-20T19:21:38.868Z,6.03
2019-03-20T19:24:12.572Z,5.33
2019-03-20T19:26:45.828Z,5.67
2019-03-20T19:29:24.734Z,5.67
2019-03-20T19:31:59.254Z,5.43
2019-03-20T19:34:31.753Z,7.03
2019-03-20T19:37:05.355Z,8.13
2019-03-20T19:39:37.278Z,10.27
2019-03-20T19:42:19.561Z,9.27
2019-03-20T19:44:45.566Z,10.30
2019-03-20T19:47:22.095Z,9.63
2019-03-20T19:49:59.100Z,8.37
2019-03-20T19:52:32.314Z,8.27
2019-03-20T19:55:05.000Z,7.03
2019-03-20T19:57:38.863Z,7.57
2019-03-20T20:00:15.461Z,6.23
2019-03-20T20:02:49.472Z,5.83
2019-03-20T20:05:23.731Z,5.97
2019-03-20T20:07:58.378Z,5.20
2019-03-20T20:10:33.201Z,5.30
2019-03-20T20:13:06.451Z,4.97
2019-03-20T20:15:39.783Z,5.27
2019-03-20T20:18:12.234Z,5.27
2019-03-20T20:20:44.579Z,5.70
2019-03-20T20:23:19.451Z,5.60
2019-03-20T20:25:53.562Z,5.13
2019-03-20T20:28:27.602Z,5.20
2019-03-20T20:31:00.635Z,5.07
2019-03-20T20:33:34.114Z,5.30
2019-03-20T20:36:07.830Z,5.13
2019-03-20T20:38:41.111Z,5.20
2019-03-20T20:41:14.568Z,4.83
2019-03-20T20:43:47.571Z,5.07
2019-03-20T20:46:23.317Z,4.50
2019-03-20T20:48:56.730Z,4.77
2019-03-20T20:51:30.618Z,5.37
2019-03-20T20:54:03.737Z,4.77
2019-03-20T20:56:36.932Z,4.93
2019-03-20T20:59:09.423Z,5.07
2019-03-20T21:01:42.009Z,5.90
2019-03-20T21:04:15.199Z,5.17
2019-03-20T21:06:47.627Z,4.90
2019-03-20T21:09:20.627Z,5.67
2019-03-20T21:11:54.150Z,5.00
2019-03-20T21:14:27.689Z,5.70
2019-03-20T21:17:01.559Z,5.80
2019-03-20T21:19:40.058Z,6.33
2019-03-20T21:23:05.407Z,5.20
2019-03-20T21:25:39.259Z,5.37
2019-03-20T21:28:59.103Z,5.00
2019-03-20T21:31:44.541Z,5.50
2019-03-20T21:34:55.590Z,5.53
2019-03-20T21:38:05.877Z,5.33
2019-03-20T21:41:25.386Z,6.40
2019-03-20T21:44:32.874Z,6.00
2019-03-20T21:47:56.642Z,6.40
2019-03-20T21:51:22.099Z,6.70
2019-03-20T21:54:42.920Z,6.73
2019-03-20T21:57:58.616Z,6.60
2019-03-20T22:01:06.257Z,6.60
2019-03-20T22:03:39.336Z,6.70
2019-03-20T22:06:49.610Z,6.73
2019-03-20T22:09:36.032Z,6.67
2019-03-20T22:12:25.937Z,6.57
2019-03-20T22:15:12.727Z,7.13
2019-03-20T22:18:26.775Z,7.30
2019-03-20T22:21:28.380Z,8.27
2019-03-20T22:24:38.633Z,7.00
2019-03-20T22:27:34.422Z,7.63
2019-03-20T22:30:08.199Z,7.30
2019-03-20T22:33:20.297Z,7.50
2019-03-20T22:36:03.720Z,8.33
2019-03-20T22:39:17.029Z,7.53
2019-03-20T22:42:09.722Z,7.70
2019-03-20T22:44:52.148Z,7.40
2019-03-20T22:48:09.350Z,8.33
2019-03-20T22:51:13.627Z,8.57
2019-03-20T22:54:40.642Z,8.33
2019-03-20T22:57:49.647Z,8.90
2019-03-20T23:00:24.195Z,9.60
2019-03-20T23:03:07.695Z,9.73
2019-03-20T23:05:41.085Z,8.60
2019-03-20T23:08:17.675Z,9.80
2019-03-20T23:10:52.831Z,9.63
2019-03-20T23:13:26.281Z,8.80
2019-03-20T23:15:59.990Z,9.77
2019-03-20T23:18:34.446Z,10.03
2019-03-20T23:21:08.747Z,10.00
2019-03-20T23:23:42.987Z,10.43
2019-03-20T23:26:17.184Z,11.40
2019-03-20T23:28:50.368Z,11.47
2019-03-20T23:31:24.159Z,11.17
2019-03-20T23:33:58.056Z,11.23
2019-03-20T23:36:31.806Z,10.37
2019-03-20T23:39:07.230Z,9.93
2019-03-20T23:41:41.499Z,10.80
2019-03-20T23:44:14.775Z,10.60
2019-03-20T23:46:49.671Z,12.07
2019-03-20T23:49:23.967Z,10.60
2019-03-20T23:51:57.896Z,10.53
2019-03-20T23:54:38.352Z,11.07
2019-03-20T23:57:11.833Z,10.43
2019-03-20T23:59:47.798Z,9.57
